Hickory, NC (28602)

2:09 PM EDT on September 30, 2014 (GMT -0400)
River Run Circle | Change Station
CLOSE
Current Station
Personal Weather Station
Location: Hickory, NC
Elevation: 1001 ft
Nearby Weather Stations

Elev 1001 ft 35.63 °N, 81.34 °W | Updated 11 minutes ago

Clear
Clear
79.7 °F
Feels Like 81 °F
N
3.7
Wind Variable Wind from WNW

Today
High -- | Low -- °F
--% Chance of Precip.
Yesterday
High -- | Low -- °F
Precip. -- in
7:19 AM 7:10 PM
Waxing Crescent, 38% visible
Pressure 29.86 in
Visibility 10.0 miles
Clouds Few 4200 ft
Heat Index 81 °F
Dew Point 62 °F
Humidity 55%
Rainfall 0.00 in
Snow Depth Not available.
UV 7 out of 12
Pollen 4.60 out of 12
Ozone Good
PM2.5 Good
Flu Activity Not available.
METAR KHKY 301753Z AUTO 25004KT 10SM FEW042 26/16 A2991 RMK AO2 SLP109 T02560156 10261 20161 58018

More Conditions Fewer Conditions

Pressure 29.86 in
Visibility 10.0 miles
Clouds Few 4200 ft
Heat Index 81 °F
Dew Point 62 °F
Humidity 55%
Rainfall 0.00 in
Snow Depth Not available.
UV 7 out of 12
Pollen 4.60 out of 12
Ozone Good
PM2.5 Good
Flu Activity Not available.
METAR KHKY 301753Z AUTO 25004KT 10SM FEW042 26/16 A2991 RMK AO2 SLP109 T02560156 10261 20161 58018

More Conditions Fewer Conditions

10-Day Weather Forecast

Almanac

Astronomy

Sep. 30, 2014 Rise Set
Actual Time 7:19 AM EDT 7:10 PM EDT
Civil Twilight 6:54 AM EDT 7:36 PM EDT
Nautical Twilight 6:24 AM EDT 8:05 PM EDT
Astronomical Twilight 5:54 AM EDT 8:35 PM EDT
Moon 1:17 PM EDT 11:48 PM EDT
Length of Visible Light 12h 41m
Length of Day
11h 51m
Tomorrow will be 2m 14s shorter.
Waxing Crescent, 38% of the Moon is Illuminated
Today
Waxing Crescent
Oct 1
First Quarter
Oct 8
Full
Oct 15
Last Quarter
Oct 23
New

Today's Extremes

State Highs State Lows

Community

WunderPhotos

Upload Photos

1,757,710 photos uploaded!

Nearby

Air Quality

  Air Quality AQ Index Pollutant
Yesterday Good
PM2.5
Yesterday Good
OZONE
Current Good
PM2.5
Current Good
OZONE
Tuesday Good
PM2.5
Tuesday Good
OZONE
Wednesday Moderate
PM2.5
Wednesday Moderate
OZONE
Thursday Moderate
PM2.5
Thursday Moderate
OZONE

Snow Depth

Station Depth Elevation
No new snow has been reported.

Earthquake Activity

City Distance Mag. Time & Date
No recent earthquake activity has been reported nearby.
Minimum magnitude displayed is 2.5.

Coastal Water Temperatures

Place Temperature
No Stations Reporting

Nearby Weather Stations